createdAt,value
2018-04-25T00:01:42.265Z,68.60
2018-04-25T00:04:12.362Z,69.11
2018-04-25T00:09:14.818Z,71.16
2018-04-25T00:11:43.633Z,71.06
2018-04-25T00:14:12.496Z,70.47
2018-04-25T00:16:42.173Z,70.33
2018-04-25T00:19:11.481Z,69.60
2018-04-25T00:21:40.359Z,69.37
2018-04-25T00:24:09.114Z,69.26
2018-04-25T00:26:38.517Z,69.51
2018-04-25T00:29:07.295Z,69.92
2018-04-25T00:31:35.891Z,70.45
2018-04-25T00:34:04.716Z,71.15
2018-04-25T00:36:33.484Z,71.87
2018-04-25T00:39:02.218Z,72.16
2018-04-25T00:41:31.009Z,72.19
2018-04-25T00:44:01.310Z,72.38
2018-04-25T00:46:30.697Z,72.95
2018-04-25T00:48:59.815Z,73.15
2018-04-25T00:51:28.648Z,73.09
2018-04-25T00:53:57.564Z,72.40
2018-04-25T00:56:26.577Z,72.51
2018-04-25T00:58:55.482Z,73.32
2018-04-25T01:01:24.114Z,73.64
2018-04-25T01:03:52.819Z,73.64
2018-04-25T01:06:21.540Z,73.56
2018-04-25T01:08:50.341Z,73.53
2018-04-25T01:11:19.089Z,73.25
2018-04-25T01:13:48.458Z,73.56
2018-04-25T01:16:17.065Z,74.01
2018-04-25T01:18:46.361Z,74.21
2018-04-25T01:21:18.504Z,74.90
2018-04-25T01:23:48.065Z,76.28
2018-04-25T01:26:16.676Z,75.61
2018-04-25T01:28:50.032Z,74.83
2018-04-25T01:31:22.778Z,74.85
2018-04-25T01:37:29.269Z,75.03
2018-04-25T01:40:02.430Z,75.23
2018-04-25T01:45:20.937Z,74.93
2018-04-25T01:47:50.378Z,75.22
2018-04-25T01:50:22.824Z,75.33
2018-04-25T01:53:09.670Z,75.37
2018-04-25T01:55:56.346Z,75.08
2018-04-25T01:58:43.913Z,75.42
2018-04-25T02:01:21.513Z,75.72
2018-04-25T02:03:57.371Z,76.08
2018-04-25T02:06:26.196Z,76.28
2018-04-25T02:08:54.866Z,76.25
2018-04-25T02:11:24.525Z,76.01
2018-04-25T02:13:53.237Z,75.76
2018-04-25T02:16:21.948Z,76.00
2018-04-25T02:18:50.776Z,75.95
2018-04-25T02:21:20.271Z,76.04
2018-04-25T02:23:48.892Z,75.88
2018-04-25T02:26:17.671Z,76.16
2018-04-25T02:28:47.555Z,76.23
2018-04-25T02:31:17.117Z,76.53
2018-04-25T02:36:20.308Z,77.13
2018-04-25T02:38:49.032Z,77.26
2018-04-25T02:41:17.724Z,77.39
2018-04-25T02:43:47.017Z,77.75
2018-04-25T02:46:15.856Z,77.74
2018-04-25T02:51:19.632Z,78.57
2018-04-25T02:53:49.858Z,77.14
2018-04-25T02:56:18.488Z,76.97
2018-04-25T02:58:47.210Z,77.54
2018-04-25T03:01:15.934Z,78.06
2018-04-25T03:03:45.332Z,78.36
2018-04-25T03:06:14.424Z,78.83
2018-04-25T03:08:43.239Z,79.50
2018-04-25T03:11:12.140Z,79.68
2018-04-25T03:13:40.835Z,79.96
2018-04-25T03:16:10.093Z,80.59
2018-04-25T03:18:39.943Z,80.59
2018-04-25T03:21:10.375Z,81.27
2018-04-25T03:23:39.242Z,81.38
2018-04-25T03:26:07.909Z,81.45
2018-04-25T03:28:37.494Z,81.74
2018-04-25T03:31:06.297Z,81.58
2018-04-25T03:33:35.114Z,82.03
2018-04-25T03:36:03.902Z,82.20
2018-04-25T03:38:32.520Z,82.15
2018-04-25T03:41:01.104Z,81.83
2018-04-25T03:43:30.664Z,81.42
2018-04-25T03:46:00.452Z,80.99
2018-04-25T03:48:31.702Z,80.89
2018-04-25T03:51:01.846Z,80.91
2018-04-25T03:53:32.497Z,81.23
2018-04-25T03:56:02.921Z,80.88
2018-04-25T03:58:32.410Z,79.65
2018-04-25T04:01:00.959Z,78.57
2018-04-25T04:03:29.733Z,79.79
2018-04-25T04:05:58.491Z,81.30
2018-04-25T04:11:01.851Z,81.20
2018-04-25T04:13:32.534Z,81.14
2018-04-25T04:16:01.124Z,81.15
2018-04-25T04:18:29.771Z,80.97
2018-04-25T04:23:31.811Z,81.11
2018-04-25T04:26:00.390Z,81.33
2018-04-25T04:28:29.006Z,81.02
2018-04-25T04:30:57.617Z,80.92
2018-04-25T04:33:26.253Z,80.49
2018-04-25T04:35:55.661Z,80.09
2018-04-25T04:38:25.349Z,80.33
2018-04-25T04:40:56.058Z,80.12
2018-04-25T04:43:25.382Z,79.79
2018-04-25T04:45:54.798Z,79.70
2018-04-25T04:50:57.657Z,78.66
2018-04-25T04:53:26.349Z,78.63
2018-04-25T04:55:56.024Z,78.55
2018-04-25T04:58:24.810Z,78.27
2018-04-25T05:00:53.631Z,78.09
2018-04-25T05:03:23.154Z,78.07
2018-04-25T05:05:52.763Z,78.16
2018-04-25T05:08:23.086Z,77.62
2018-04-25T05:10:52.744Z,76.84
2018-04-25T05:13:22.697Z,76.25
2018-04-25T05:15:51.620Z,75.94
2018-04-25T05:18:20.536Z,75.58
2018-04-25T05:20:49.681Z,75.37
2018-04-25T05:23:19.585Z,74.54
2018-04-25T05:25:48.699Z,73.27
2018-04-25T05:28:17.506Z,71.31
2018-04-25T05:30:46.457Z,69.00
2018-04-25T05:33:15.793Z,66.94
2018-04-25T05:35:45.134Z,65.38
2018-04-25T05:38:15.228Z,64.12
2018-04-25T05:40:45.666Z,62.44
2018-04-25T05:43:15.768Z,61.93
2018-04-25T05:45:44.561Z,61.46
2018-04-25T05:48:14.245Z,60.61
2018-04-25T05:50:44.494Z,59.17
2018-04-25T05:53:14.092Z,58.74
2018-04-25T05:55:43.234Z,56.84
2018-04-25T05:58:13.265Z,56.00
2018-04-25T06:00:44.043Z,55.28
2018-04-25T06:03:12.929Z,55.27
2018-04-25T06:05:42.244Z,54.26
2018-04-25T06:08:11.764Z,53.60
2018-04-25T06:10:40.409Z,52.67
2018-04-25T06:13:09.938Z,51.93
2018-04-25T06:15:40.456Z,50.97
2018-04-25T06:18:09.193Z,50.92
2018-04-25T06:20:37.902Z,49.39
2018-04-25T06:23:07.677Z,47.74
2018-04-25T06:25:36.983Z,48.75
2018-04-25T06:28:08.007Z,47.63
2018-04-25T06:30:37.079Z,47.17
2018-04-25T06:33:06.383Z,47.37
2018-04-25T06:35:35.613Z,50.99
2018-04-25T06:38:04.548Z,47.38
2018-04-25T06:40:33.359Z,45.98
2018-04-25T06:43:03.435Z,44.14
2018-04-25T06:45:32.614Z,44.02
2018-04-25T06:48:02.028Z,43.18
2018-04-25T06:50:31.143Z,42.41
2018-04-25T06:53:01.718Z,42.23
2018-04-25T06:55:32.580Z,42.07
2018-04-25T06:58:01.349Z,43.15
2018-04-25T07:00:30.262Z,42.38
2018-04-25T07:02:59.487Z,40.68
2018-04-25T07:05:29.532Z,39.54
2018-04-25T07:07:58.369Z,41.00
2018-04-25T07:10:27.955Z,38.81
2018-04-25T07:12:57.482Z,38.18
2018-04-25T07:15:27.695Z,38.64
2018-04-25T07:17:56.846Z,38.88
2018-04-25T07:20:26.578Z,38.26
2018-04-25T07:22:56.758Z,38.10
2018-04-25T07:25:26.472Z,38.63
2018-04-25T07:27:55.486Z,37.07
2018-04-25T07:30:26.811Z,35.24
2018-04-25T07:32:56.203Z,34.77
2018-04-25T07:35:25.441Z,32.98
2018-04-25T07:37:54.295Z,31.59
2018-04-25T07:40:23.200Z,31.70
2018-04-25T07:42:51.907Z,30.69
2018-04-25T07:45:20.690Z,31.50
2018-04-25T07:47:51.032Z,30.81
2018-04-25T07:50:20.795Z,29.41
2018-04-25T07:52:49.416Z,29.16
2018-04-25T07:55:18.527Z,29.27
2018-04-25T07:57:47.396Z,29.91
2018-04-25T08:00:16.304Z,30.94
2018-04-25T08:02:46.521Z,28.91
2018-04-25T08:05:16.636Z,29.91
2018-04-25T08:07:45.972Z,30.36
2018-04-25T08:10:14.803Z,30.97
2018-04-25T08:13:01.434Z,29.64
2018-04-25T08:15:49.381Z,28.40
2018-04-25T08:18:36.285Z,27.42
2018-04-25T08:24:22.464Z,27.52
2018-04-25T08:26:51.783Z,27.34
2018-04-25T08:29:20.655Z,28.25
2018-04-25T08:31:49.598Z,31.20
2018-04-25T08:34:18.591Z,30.36
2018-04-25T08:36:47.382Z,29.24
2018-04-25T08:39:16.212Z,28.44
2018-04-25T08:41:44.964Z,28.25
2018-04-25T08:44:13.548Z,25.69
2018-04-25T08:46:42.458Z,24.36
2018-04-25T08:49:11.220Z,22.87
2018-04-25T08:51:39.921Z,22.84
2018-04-25T08:54:09.713Z,23.77
2018-04-25T08:59:14.279Z,21.06
2018-04-25T09:01:44.231Z,21.17
2018-04-25T09:04:13.103Z,20.14
2018-04-25T09:06:42.237Z,19.29
2018-04-25T09:09:11.235Z,18.36
2018-04-25T09:11:42.056Z,19.86
2018-04-25T09:14:10.913Z,21.06
2018-04-25T09:16:40.695Z,21.98
2018-04-25T09:19:11.858Z,20.07
2018-04-25T09:21:41.294Z,20.73
2018-04-25T09:24:10.136Z,19.91
2018-04-25T09:26:39.193Z,20.88
2018-04-25T09:29:08.873Z,20.15
2018-04-25T09:31:39.013Z,21.52
2018-04-25T09:34:08.326Z,19.33
2018-04-25T09:36:37.835Z,19.91
2018-04-25T09:39:07.709Z,18.93
2018-04-25T09:41:36.583Z,19.50
2018-04-25T09:44:05.976Z,21.12
2018-04-25T09:46:35.364Z,19.65
2018-04-25T09:49:04.776Z,19.24
2018-04-25T09:51:33.859Z,20.10
2018-04-25T09:54:02.617Z,20.74
2018-04-25T09:56:31.448Z,22.73
2018-04-25T09:59:00.921Z,21.48
2018-04-25T10:01:32.189Z,19.71
2018-04-25T10:04:01.257Z,18.75
2018-04-25T10:06:32.395Z,21.88
2018-04-25T10:09:01.056Z,20.06
2018-04-25T10:11:31.695Z,20.05
2018-04-25T10:14:02.453Z,19.17
2018-04-25T10:16:31.633Z,18.81
2018-04-25T10:19:02.303Z,18.18
2018-04-25T10:21:31.513Z,18.36
2018-04-25T10:24:00.562Z,18.32
2018-04-25T10:26:29.510Z,22.19
2018-04-25T10:28:58.579Z,19.79
2018-04-25T10:31:29.328Z,19.37
2018-04-25T10:33:58.133Z,17.70
2018-04-25T10:36:27.046Z,17.28
2018-04-25T10:38:56.503Z,18.24
2018-04-25T10:41:26.173Z,18.18
2018-04-25T10:43:55.196Z,17.12
2018-04-25T10:46:24.146Z,18.65
2018-04-25T10:48:53.619Z,21.23
2018-04-25T10:51:22.518Z,19.87
2018-04-25T10:53:51.595Z,17.97
2018-04-25T10:56:20.489Z,17.68
2018-04-25T10:58:49.439Z,17.86
2018-04-25T11:01:18.356Z,17.94
2018-04-25T11:03:47.390Z,22.89
2018-04-25T11:06:16.241Z,22.75
2018-04-25T11:08:46.187Z,21.07
2018-04-25T11:11:16.676Z,21.88
2018-04-25T11:13:45.544Z,20.82
2018-04-25T11:16:14.942Z,21.21
2018-04-25T11:18:44.146Z,22.10
2018-04-25T11:21:12.989Z,20.04
2018-04-25T11:23:41.884Z,22.86
2018-04-25T11:26:10.627Z,21.43
2018-04-25T11:28:40.075Z,20.65
2018-04-25T11:31:08.825Z,20.41
2018-04-25T11:33:37.386Z,19.86
2018-04-25T11:36:06.011Z,19.09
2018-04-25T11:38:34.890Z,19.04
2018-04-25T11:41:05.219Z,21.26
2018-04-25T11:43:34.102Z,21.19
2018-04-25T11:46:02.739Z,20.37
2018-04-25T11:48:31.420Z,19.23
2018-04-25T11:51:00.314Z,19.36
2018-04-25T11:53:29.344Z,19.50
2018-04-25T11:55:58.181Z,22.29
2018-04-25T11:58:27.499Z,22.95
2018-04-25T12:00:56.385Z,21.33
2018-04-25T12:03:25.402Z,20.64
2018-04-25T12:05:54.190Z,21.84
2018-04-25T12:08:23.504Z,20.95
2018-04-25T12:10:53.560Z,19.12
2018-04-25T12:13:23.183Z,19.08
2018-04-25T12:15:53.061Z,20.71
2018-04-25T12:18:22.540Z,18.52
2018-04-25T12:23:25.286Z,22.75
2018-04-25T12:28:28.232Z,21.10
2018-04-25T12:30:58.034Z,18.93
2018-04-25T12:33:27.292Z,19.33
2018-04-25T12:35:56.209Z,20.70
2018-04-25T12:38:25.099Z,21.05
2018-04-25T12:40:54.069Z,21.64
2018-04-25T12:43:23.651Z,23.10
2018-04-25T12:45:53.671Z,23.80
2018-04-25T12:48:23.156Z,21.66
2018-04-25T12:50:52.091Z,20.67
2018-04-25T12:53:20.956Z,21.11
2018-04-25T12:55:50.161Z,22.10
2018-04-25T12:58:19.371Z,20.99
2018-04-25T13:00:48.683Z,20.82
2018-04-25T13:03:18.285Z,20.76
2018-04-25T13:05:47.158Z,21.25
2018-04-25T13:08:15.806Z,20.94
2018-04-25T13:10:44.570Z,21.28
2018-04-25T13:15:48.838Z,19.50
2018-04-25T13:18:21.344Z,21.59
2018-04-25T13:20:50.224Z,20.04
2018-04-25T13:23:19.952Z,21.25
2018-04-25T13:25:50.539Z,20.23
2018-04-25T13:28:20.420Z,19.35
2018-04-25T13:30:49.323Z,22.21
2018-04-25T13:33:18.185Z,19.81
2018-04-25T13:35:46.953Z,19.50
2018-04-25T13:38:16.034Z,19.58
2018-04-25T13:40:46.765Z,21.20
2018-04-25T13:43:15.542Z,21.20
2018-04-25T13:48:20.303Z,21.50
2018-04-25T13:50:49.537Z,21.41
2018-04-25T13:53:18.446Z,22.99
2018-04-25T13:55:47.185Z,22.54
2018-04-25T13:58:16.331Z,22.22
2018-04-25T14:03:20.607Z,22.75
2018-04-25T14:05:50.367Z,22.36
2018-04-25T14:08:19.934Z,21.04
2018-04-25T14:10:50.364Z,22.67
2018-04-25T14:13:20.482Z,22.32
2018-04-25T14:15:49.571Z,22.83
2018-04-25T14:20:52.836Z,22.24
2018-04-25T14:23:21.936Z,21.98
2018-04-25T14:25:50.777Z,23.28
2018-04-25T14:28:20.998Z,22.87
2018-04-25T14:30:51.669Z,22.77
2018-04-25T14:33:21.006Z,23.07
2018-04-25T14:35:50.272Z,23.04
2018-04-25T14:38:19.562Z,23.33
2018-04-25T14:40:48.353Z,22.12
2018-04-25T14:43:17.706Z,23.76
2018-04-25T14:45:46.427Z,22.88
2018-04-25T14:48:15.389Z,23.19
2018-04-25T14:50:44.091Z,23.90
2018-04-25T14:53:12.907Z,24.26
2018-04-25T14:55:41.776Z,23.14
2018-04-25T14:58:11.294Z,24.10
2018-04-25T15:00:40.032Z,23.90
2018-04-25T15:03:10.101Z,23.76
2018-04-25T15:05:39.703Z,25.21
2018-04-25T15:08:09.447Z,24.41
2018-04-25T15:10:38.894Z,24.42
2018-04-25T15:13:08.830Z,24.04
2018-04-25T15:15:39.359Z,24.29
2018-04-25T15:18:08.277Z,25.33
2018-04-25T15:20:37.238Z,24.55
2018-04-25T15:23:05.988Z,24.86
2018-04-25T15:25:35.011Z,25.98
2018-04-25T15:28:03.924Z,25.95
2018-04-25T15:30:35.911Z,25.64
2018-04-25T15:33:05.335Z,26.14
2018-04-25T15:35:34.881Z,26.84
2018-04-25T15:38:03.879Z,26.80
2018-04-25T15:40:32.865Z,26.58
2018-04-25T15:43:01.592Z,26.05
2018-04-25T15:45:30.449Z,25.87
2018-04-25T15:47:59.600Z,27.73
2018-04-25T15:50:28.779Z,27.42
2018-04-25T15:52:58.364Z,26.74
2018-04-25T15:55:27.609Z,26.62
2018-04-25T15:58:00.098Z,26.62
2018-04-25T16:00:29.801Z,27.10
2018-04-25T16:02:58.731Z,26.06
2018-04-25T16:05:29.439Z,27.18
2018-04-25T16:07:59.171Z,26.78
2018-04-25T16:10:28.707Z,26.74
2018-04-25T16:12:57.411Z,26.56
2018-04-25T16:15:27.247Z,27.06
2018-04-25T16:17:56.870Z,27.20
2018-04-25T16:20:26.421Z,25.75
2018-04-25T16:22:55.642Z,26.98
2018-04-25T16:25:25.017Z,27.39
2018-04-25T16:27:54.131Z,27.43
2018-04-25T16:30:23.754Z,26.49
2018-04-25T16:32:53.444Z,27.46
2018-04-25T16:35:23.204Z,27.26
2018-04-25T16:37:52.636Z,27.93
2018-04-25T16:40:21.861Z,28.56
2018-04-25T16:42:50.735Z,27.28
2018-04-25T16:45:20.641Z,28.06
2018-04-25T16:47:51.240Z,27.27
2018-04-25T16:50:21.164Z,27.07
2018-04-25T16:52:50.947Z,27.42
2018-04-25T16:55:20.827Z,27.15
2018-04-25T16:57:50.361Z,27.25
2018-04-25T17:00:19.351Z,28.41
2018-04-25T17:02:48.487Z,28.44
2018-04-25T17:05:17.409Z,28.54
2018-04-25T17:07:46.642Z,28.20
2018-04-25T17:10:15.806Z,28.99
2018-04-25T17:12:44.513Z,28.47
2018-04-25T17:15:14.559Z,28.95
2018-04-25T17:17:43.455Z,28.93
2018-04-25T17:20:13.508Z,29.23
2018-04-25T17:22:42.525Z,29.57
2018-04-25T17:25:12.805Z,29.83
2018-04-25T17:27:42.333Z,30.59
2018-04-25T17:30:11.311Z,30.73
2018-04-25T17:32:40.848Z,30.97
2018-04-25T17:35:10.099Z,30.95
2018-04-25T17:37:41.120Z,31.55
2018-04-25T17:40:10.234Z,31.98
2018-04-25T17:42:39.852Z,32.52
2018-04-25T17:45:09.871Z,32.49
2018-04-25T17:47:40.064Z,34.03
2018-04-25T17:50:09.182Z,34.42
2018-04-25T17:52:38.055Z,34.89
2018-04-25T17:55:07.653Z,35.03
2018-04-25T17:57:36.998Z,35.13
2018-04-25T18:00:05.916Z,35.46
2018-04-25T18:02:35.229Z,36.14
2018-04-25T18:05:05.175Z,36.86
2018-04-25T18:07:35.786Z,37.58
2018-04-25T18:10:05.130Z,37.54
2018-04-25T18:12:37.166Z,38.00
2018-04-25T18:15:07.284Z,38.39
2018-04-25T18:17:37.160Z,38.46
2018-04-25T18:20:06.385Z,38.90
2018-04-25T18:22:36.368Z,39.41
2018-04-25T18:25:07.270Z,39.68
2018-04-25T18:27:37.027Z,40.24
2018-04-25T18:30:07.789Z,40.83
2018-04-25T18:32:38.682Z,41.65
2018-04-25T18:35:08.844Z,42.01
2018-04-25T18:37:38.634Z,41.81
2018-04-25T18:40:07.462Z,42.35
2018-04-25T18:42:36.746Z,42.62
2018-04-25T18:45:06.934Z,42.65
2018-04-25T18:47:36.304Z,42.93
2018-04-25T18:50:07.431Z,42.04
2018-04-25T18:52:36.292Z,42.09
2018-04-25T18:55:06.153Z,41.65
2018-04-25T18:57:36.037Z,42.83
2018-04-25T19:00:06.201Z,43.15
2018-04-25T19:02:36.003Z,42.41
2018-04-25T19:05:04.977Z,42.28
2018-04-25T19:07:33.716Z,42.54
2018-04-25T19:10:02.964Z,43.16
2018-04-25T19:12:33.605Z,43.61
2018-04-25T19:15:03.186Z,43.83
2018-04-25T19:17:31.983Z,44.15
2018-04-25T19:20:00.699Z,44.62
2018-04-25T19:22:30.301Z,44.67
2018-04-25T19:24:59.346Z,44.89
2018-04-25T19:27:29.334Z,44.85
2018-04-25T19:30:00.299Z,44.69
2018-04-25T19:32:31.057Z,44.55
2018-04-25T19:35:00.699Z,44.98
2018-04-25T19:37:29.640Z,45.64
2018-04-25T19:39:59.538Z,45.56
2018-04-25T19:42:28.365Z,45.79
2018-04-25T19:44:57.782Z,45.44
2018-04-25T19:47:27.180Z,45.16
2018-04-25T19:49:56.199Z,44.26
2018-04-25T19:52:28.499Z,44.55
2018-04-25T19:54:58.901Z,45.15
2018-04-25T19:57:28.275Z,45.58
2018-04-25T19:59:58.683Z,45.88
2018-04-25T20:02:28.931Z,46.46
2018-04-25T20:04:59.240Z,46.14
2018-04-25T20:07:28.775Z,46.31
2018-04-25T20:09:58.508Z,46.48
2018-04-25T20:12:27.794Z,46.14
2018-04-25T20:14:56.801Z,45.94
2018-04-25T20:17:26.938Z,46.32
2018-04-25T20:19:57.001Z,46.30
2018-04-25T20:22:25.812Z,46.15
2018-04-25T20:24:54.922Z,46.28
2018-04-25T20:27:23.713Z,46.68
2018-04-25T20:29:53.645Z,47.12
2018-04-25T20:32:23.289Z,47.52
2018-04-25T20:34:52.218Z,47.95
2018-04-25T20:37:21.117Z,48.46
2018-04-25T20:39:49.931Z,48.83
2018-04-25T20:42:19.061Z,49.02
2018-04-25T20:44:48.419Z,49.95
2018-04-25T20:47:18.828Z,50.20
2018-04-25T20:49:48.122Z,50.93
2018-04-25T20:52:18.238Z,51.44
2018-04-25T20:54:47.105Z,50.93
2018-04-25T20:57:16.478Z,51.39
2018-04-25T20:59:45.529Z,51.51
2018-04-25T21:02:14.276Z,51.72
2018-04-25T21:04:43.164Z,52.00
2018-04-25T21:07:12.477Z,52.16
2018-04-25T21:09:42.512Z,52.33
2018-04-25T21:12:11.449Z,52.74
2018-04-25T21:14:41.171Z,52.15
2018-04-25T21:17:10.777Z,53.84
2018-04-25T21:19:39.736Z,54.82
2018-04-25T21:22:08.819Z,54.89
2018-04-25T21:24:37.735Z,55.22
2018-04-25T21:27:06.628Z,55.61
2018-04-25T21:29:35.730Z,55.66
2018-04-25T21:32:04.607Z,55.46
2018-04-25T21:34:33.488Z,55.35
2018-04-25T21:37:03.155Z,54.81
2018-04-25T21:39:32.100Z,54.78
2018-04-25T21:42:01.434Z,54.92
2018-04-25T21:44:31.100Z,54.33
2018-04-25T21:47:01.197Z,53.63
2018-04-25T21:49:30.338Z,53.52
2018-04-25T21:51:59.187Z,53.34
2018-04-25T21:54:30.426Z,53.46
2018-04-25T21:56:59.427Z,54.61
2018-04-25T21:59:28.266Z,54.69
2018-04-25T22:01:57.242Z,55.05
2018-04-25T22:04:26.341Z,55.54
2018-04-25T22:06:55.171Z,55.53
2018-04-25T22:09:23.990Z,55.97
2018-04-25T22:11:52.830Z,56.64
2018-04-25T22:14:22.555Z,57.26
2018-04-25T22:16:52.416Z,57.98
2018-04-25T22:19:21.282Z,57.90
2018-04-25T22:21:50.251Z,58.14
2018-04-25T22:24:19.820Z,58.49
2018-04-25T22:26:48.937Z,58.75
2018-04-25T22:29:17.938Z,59.00
2018-04-25T22:31:47.977Z,59.37
2018-04-25T22:34:16.653Z,59.17
2018-04-25T22:36:46.426Z,59.48
2018-04-25T22:39:15.026Z,60.87
2018-04-25T22:41:43.593Z,62.44
2018-04-25T22:44:13.672Z,63.82
2018-04-25T22:46:42.881Z,64.64
2018-04-25T22:49:11.557Z,64.81
2018-04-25T22:51:41.123Z,64.28
2018-04-25T22:54:10.145Z,63.63
2018-04-25T22:56:38.927Z,63.56
2018-04-25T22:59:07.695Z,63.08
2018-04-25T23:01:36.462Z,62.43
2018-04-25T23:04:05.675Z,62.20
2018-04-25T23:06:35.246Z,61.88
2018-04-25T23:09:03.970Z,62.16
2018-04-25T23:11:33.408Z,62.03
2018-04-25T23:14:03.399Z,62.29
2018-04-25T23:16:32.788Z,62.25
2018-04-25T23:19:01.614Z,62.29
2018-04-25T23:21:30.352Z,62.76
2018-04-25T23:23:59.665Z,62.50
2018-04-25T23:26:28.433Z,62.37
2018-04-25T23:28:57.158Z,62.42
2018-04-25T23:31:25.970Z,62.11
2018-04-25T23:33:54.659Z,62.16
2018-04-25T23:36:23.766Z,62.59
2018-04-25T23:38:53.237Z,62.91
2018-04-25T23:41:21.995Z,63.60
2018-04-25T23:43:50.794Z,64.13
2018-04-25T23:46:21.068Z,64.83
2018-04-25T23:48:50.240Z,66.22
2018-04-25T23:51:19.034Z,66.99
2018-04-25T23:53:47.706Z,67.62
2018-04-25T23:56:16.464Z,68.11
2018-04-25T23:58:45.817Z,68.97
